Mount Sterling, Missouri
Current Conditions -  °F | °C
As of 5:53 PM on Monday 22 Dec 2014 (Local Time) from KVIH Reporting Station
Overcast Overcast  
Wind Chill: 43°   Ceiling: 500
Heat Index: 47°   Visibility: 10mi
Dew Point: 46°   Wind: 9mph
Humidity: 97%   Direction: 180°S
Pressure: 29.49"   Gusts: NA
Location:  38.47°N, 91.63°W
Report Text: KVIH 222353Z AUTO 18008KT 10SM OVC005 08/08 A2949 RMK AO2 RAB28E29 SLP987 P0000 60014 T00830078 10083 20072 57003 $
Loading
Personal Weather Stations






























Interactive Weather Map New forecast layout! Learn more

10-Day Weather Forecast

Advertisements
Track Severe Weather on mobile